createdAt,value
2022-11-21T00:00:40.279Z,4.94
2022-11-21T00:01:40.249Z,4.93
2022-11-21T00:02:40.256Z,4.97
2022-11-21T00:03:40.259Z,4.96
2022-11-21T00:04:40.260Z,4.96
2022-11-21T00:05:40.270Z,4.94
2022-11-21T00:06:40.259Z,5.05
2022-11-21T00:07:41.326Z,4.94
2022-11-21T00:08:40.280Z,5.10
2022-11-21T00:09:41.024Z,5.02
2022-11-21T00:10:40.210Z,5.05
2022-11-21T00:11:42.137Z,5.00
2022-11-21T00:12:40.403Z,5.07
2022-11-21T00:13:41.046Z,5.11
2022-11-21T00:14:41.610Z,5.21
2022-11-21T00:15:40.223Z,5.32
2022-11-21T00:16:41.044Z,5.18
2022-11-21T00:17:41.254Z,5.21
2022-11-21T00:18:41.347Z,5.38
2022-11-21T00:19:40.097Z,5.39
2022-11-21T00:20:40.124Z,5.41
2022-11-21T00:21:40.138Z,5.30
2022-11-21T00:22:41.574Z,5.38
2022-11-21T00:23:40.077Z,5.44
2022-11-21T00:24:40.038Z,5.46
2022-11-21T00:25:40.039Z,5.44
2022-11-21T00:26:40.088Z,5.51
2022-11-21T00:27:40.082Z,5.54
2022-11-21T00:28:40.085Z,5.57
2022-11-21T00:29:40.061Z,5.59
2022-11-21T00:30:40.013Z,5.56
2022-11-21T00:31:40.029Z,5.61
2022-11-21T00:32:40.076Z,5.53
2022-11-21T00:33:40.014Z,5.59
2022-11-21T00:34:40.093Z,5.59
2022-11-21T00:35:40.042Z,5.53
2022-11-21T00:36:40.467Z,5.54
2022-11-21T00:37:39.973Z,5.66
2022-11-21T00:38:40.080Z,5.71
2022-11-21T00:39:40.142Z,5.61
2022-11-21T00:40:40.051Z,5.69
2022-11-21T00:41:40.432Z,5.69
2022-11-21T00:42:40.432Z,5.62
2022-11-21T00:43:39.975Z,5.76
2022-11-21T00:44:40.040Z,5.61
2022-11-21T00:45:39.973Z,5.64
2022-11-21T00:46:39.993Z,5.69
2022-11-21T00:47:40.723Z,5.69
2022-11-21T00:48:40.432Z,5.75
2022-11-21T00:49:40.696Z,5.68
2022-11-21T00:50:41.432Z,5.66
2022-11-21T00:52:12.199Z,5.64
2022-11-21T00:52:39.814Z,5.61
2022-11-21T00:53:39.827Z,5.53
2022-11-21T00:54:40.633Z,5.64
2022-11-21T00:55:39.749Z,5.56
2022-11-21T00:56:39.771Z,5.56
2022-11-21T00:57:39.733Z,5.61
2022-11-21T00:58:39.760Z,5.61
2022-11-21T00:59:39.726Z,5.61
2022-11-21T01:00:39.813Z,5.57
2022-11-21T01:01:39.741Z,5.59
2022-11-21T01:02:39.736Z,5.61
2022-11-21T01:04:13.076Z,5.61
2022-11-21T01:04:39.696Z,5.51
2022-11-21T01:05:39.681Z,5.51
2022-11-21T01:06:39.673Z,5.59
2022-11-21T01:07:39.741Z,5.64
2022-11-21T01:08:39.714Z,5.57
2022-11-21T01:09:39.708Z,5.56
2022-11-21T01:10:39.653Z,5.59
2022-11-21T01:11:39.628Z,5.53
2022-11-21T01:12:39.634Z,5.48
2022-11-21T01:13:39.812Z,5.48
2022-11-21T01:14:39.710Z,5.54
2022-11-21T01:15:39.607Z,5.56
2022-11-21T01:16:39.578Z,5.51
2022-11-21T01:17:39.592Z,5.51
2022-11-21T01:18:39.638Z,5.50
2022-11-21T01:19:39.582Z,5.53
2022-11-21T01:20:39.555Z,5.62
2022-11-21T01:21:39.556Z,5.54
2022-11-21T01:22:39.577Z,5.57
2022-11-21T01:23:39.567Z,5.61
2022-11-21T01:24:39.560Z,5.51
2022-11-21T01:25:39.572Z,5.54
2022-11-21T01:26:39.529Z,5.61
2022-11-21T01:27:39.532Z,5.54
2022-11-21T01:28:39.534Z,5.64
2022-11-21T01:29:39.512Z,5.56
2022-11-21T01:30:39.504Z,5.61
2022-11-21T01:31:39.478Z,5.59
2022-11-21T01:32:39.508Z,5.56
2022-11-21T01:33:39.448Z,5.56
2022-11-21T01:34:39.505Z,5.53
2022-11-21T01:35:39.453Z,5.57
2022-11-21T01:36:39.498Z,5.50
2022-11-21T01:37:39.476Z,5.66
2022-11-21T01:38:39.424Z,5.59
2022-11-21T01:39:39.582Z,5.57
2022-11-21T01:40:39.483Z,5.62
2022-11-21T01:41:39.486Z,5.61
2022-11-21T01:42:39.501Z,5.61
2022-11-21T01:43:39.619Z,5.65
2022-11-21T01:44:39.473Z,5.62
2022-11-21T01:45:39.479Z,5.56
2022-11-21T01:46:39.511Z,5.66
2022-11-21T01:47:39.409Z,5.65
2022-11-21T01:48:39.408Z,5.71
2022-11-21T01:49:39.497Z,5.66
2022-11-21T01:50:39.424Z,5.71
2022-11-21T01:51:39.357Z,5.68
2022-11-21T01:52:39.343Z,5.76
2022-11-21T01:53:39.344Z,5.72
2022-11-21T01:54:39.389Z,5.65
2022-11-21T01:55:39.376Z,5.79
2022-11-21T01:56:39.331Z,5.65
2022-11-21T01:57:39.329Z,5.62
2022-11-21T01:58:39.429Z,5.68
2022-11-21T01:59:39.315Z,5.71
2022-11-21T02:00:39.422Z,5.69
2022-11-21T02:01:39.300Z,5.72
2022-11-21T02:26:52.528Z,5.76
2022-11-21T02:27:47.640Z,5.69
2022-11-21T02:28:47.638Z,5.64
2022-11-21T02:29:47.686Z,5.62
2022-11-21T02:30:47.613Z,5.75
2022-11-21T02:31:48.638Z,5.72
2022-11-21T02:32:47.638Z,5.69
2022-11-21T02:33:47.705Z,5.73
2022-11-21T02:34:47.791Z,5.75
2022-11-21T02:35:47.609Z,5.71
2022-11-21T02:36:47.609Z,5.75
2022-11-21T02:37:47.723Z,5.71
2022-11-21T02:38:47.618Z,5.75
2022-11-21T02:39:48.148Z,5.66
2022-11-21T02:40:47.604Z,5.65
2022-11-21T02:41:47.569Z,5.73
2022-11-21T02:42:52.417Z,5.66
2022-11-21T02:43:49.625Z,5.66
2022-11-21T02:44:47.709Z,5.66
2022-11-21T02:45:47.592Z,5.65
2022-11-21T02:46:47.591Z,5.65
2022-11-21T02:47:47.486Z,5.68
2022-11-21T02:48:47.550Z,5.68
2022-11-21T02:49:47.550Z,5.64
2022-11-21T02:50:48.100Z,5.61
2022-11-21T02:51:47.479Z,5.61
2022-11-21T02:52:47.575Z,5.68
2022-11-21T02:53:47.545Z,5.61
2022-11-21T02:54:47.473Z,5.65
2022-11-21T02:55:47.520Z,5.61
2022-11-21T02:56:47.517Z,5.53
2022-11-21T02:57:47.494Z,5.38
2022-11-21T02:58:47.476Z,5.44
2022-11-21T02:59:47.485Z,5.48
2022-11-21T03:00:47.495Z,5.46
2022-11-21T03:01:47.443Z,5.38
2022-11-21T03:02:47.507Z,5.32
2022-11-21T03:04:20.793Z,5.25
2022-11-21T03:04:47.455Z,5.28
2022-11-21T03:05:47.463Z,5.32
2022-11-21T03:06:48.141Z,5.32
2022-11-21T03:07:47.358Z,5.26
2022-11-21T03:08:48.309Z,5.25
2022-11-21T03:09:47.372Z,5.21
2022-11-21T03:10:48.370Z,5.25
2022-11-21T03:11:47.345Z,5.21
2022-11-21T03:12:47.317Z,5.21
2022-11-21T03:13:47.317Z,5.20
2022-11-21T03:14:47.291Z,5.20
2022-11-21T03:15:47.257Z,5.25
2022-11-21T03:16:47.333Z,5.21
2022-11-21T03:17:47.297Z,5.23
2022-11-21T03:18:47.306Z,5.18
2022-11-21T03:19:47.274Z,5.17
2022-11-21T03:20:47.276Z,5.18
2022-11-21T03:21:47.257Z,5.11
2022-11-21T03:22:47.221Z,5.05
2022-11-21T03:23:47.254Z,4.97
2022-11-21T03:24:47.198Z,4.92
2022-11-21T03:25:47.195Z,4.90
2022-11-21T03:26:47.190Z,4.96
2022-11-21T03:27:47.188Z,4.90
2022-11-21T03:28:47.243Z,4.89
2022-11-21T03:29:47.215Z,4.86
2022-11-21T03:30:47.190Z,4.78
2022-11-21T03:31:47.195Z,4.70
2022-11-21T03:32:47.156Z,4.75
2022-11-21T03:33:47.135Z,4.70
2022-11-21T03:34:47.173Z,4.78
2022-11-21T03:35:47.147Z,4.86
2022-11-21T03:36:47.196Z,4.71
2022-11-21T03:37:47.167Z,4.66
2022-11-21T03:38:47.116Z,4.68
2022-11-21T03:39:47.142Z,4.67
2022-11-21T03:40:47.125Z,4.59
2022-11-21T03:41:47.085Z,4.62
2022-11-21T03:42:47.078Z,4.63
2022-11-21T03:43:47.054Z,4.71
2022-11-21T03:44:47.068Z,4.70
2022-11-21T03:45:47.057Z,4.62
2022-11-21T03:46:47.038Z,4.53
2022-11-21T04:02:52.320Z,4.26
2022-11-21T04:03:52.318Z,4.26
2022-11-21T04:04:53.435Z,4.17
2022-11-21T04:06:25.330Z,4.22
2022-11-21T04:06:53.426Z,4.28
2022-11-21T04:07:53.404Z,4.23
2022-11-21T04:08:53.411Z,4.32
2022-11-21T04:09:53.386Z,4.28
2022-11-21T04:10:53.542Z,4.13
2022-11-21T04:11:53.389Z,4.26
2022-11-21T04:12:53.377Z,4.34
2022-11-21T04:13:53.392Z,4.32
2022-11-21T04:14:53.377Z,4.26
2022-11-21T04:15:53.376Z,4.37
2022-11-21T04:16:53.352Z,4.30
2022-11-21T04:17:53.349Z,4.35
2022-11-21T04:18:53.348Z,4.44
2022-11-21T04:19:53.380Z,4.38
2022-11-21T04:20:54.326Z,4.22
2022-11-21T04:21:53.342Z,4.35
2022-11-21T04:22:53.326Z,4.24
2022-11-21T04:23:53.376Z,4.22
2022-11-21T04:24:53.323Z,4.34
2022-11-21T04:25:53.323Z,4.17
2022-11-21T04:26:53.272Z,4.19
2022-11-21T04:27:53.267Z,4.24
2022-11-21T04:28:53.320Z,4.23
2022-11-21T04:29:53.289Z,4.13
2022-11-21T04:30:54.979Z,4.17
2022-11-21T04:31:54.261Z,4.24
2022-11-21T04:32:53.214Z,4.30
2022-11-21T04:33:53.272Z,4.26
2022-11-21T04:34:53.279Z,4.23
2022-11-21T04:35:53.277Z,4.26
2022-11-21T04:36:53.368Z,4.30
2022-11-21T04:37:53.221Z,4.40
2022-11-21T04:38:53.190Z,4.40
2022-11-21T04:39:53.167Z,4.35
2022-11-21T04:40:53.209Z,4.31
2022-11-21T04:41:53.153Z,4.35
2022-11-21T04:42:53.170Z,4.28
2022-11-21T04:43:53.121Z,4.35
2022-11-21T04:44:54.159Z,4.23
2022-11-21T04:45:53.135Z,4.32
2022-11-21T04:46:53.188Z,4.23
2022-11-21T04:47:53.087Z,4.22
2022-11-21T04:48:53.093Z,4.23
2022-11-21T04:49:53.097Z,4.22
2022-11-21T04:50:53.080Z,4.22
2022-11-21T04:51:53.117Z,4.26
2022-11-21T04:52:53.109Z,4.17
2022-11-21T04:53:53.075Z,4.19
2022-11-21T04:54:53.109Z,4.12
2022-11-21T04:55:53.042Z,4.14
2022-11-21T04:56:53.066Z,4.08
2022-11-21T04:57:53.048Z,4.05
2022-11-21T04:58:53.028Z,4.04
2022-11-21T04:59:53.004Z,3.99
2022-11-21T05:00:53.097Z,3.94
2022-11-21T05:01:53.043Z,3.88
2022-11-21T05:02:52.975Z,3.94
2022-11-21T05:03:52.990Z,3.84
2022-11-21T05:04:52.985Z,3.92
2022-11-21T05:05:52.959Z,3.92
2022-11-21T05:06:52.945Z,3.92
2022-11-21T05:07:52.949Z,3.88
2022-11-21T05:08:54.271Z,3.88
2022-11-21T05:09:53.933Z,3.86
2022-11-21T05:10:52.922Z,3.84
2022-11-21T05:12:39.472Z,3.92
2022-11-21T05:13:39.627Z,3.80
2022-11-21T05:14:39.478Z,3.80
2022-11-21T05:15:40.638Z,3.83
2022-11-21T05:16:41.607Z,3.86
2022-11-21T05:17:40.630Z,3.86
2022-11-21T05:18:40.631Z,3.87
2022-11-21T05:19:40.573Z,3.87
2022-11-21T05:20:40.609Z,3.76
2022-11-21T05:21:40.587Z,3.81
2022-11-21T05:22:40.569Z,3.73
2022-11-21T05:23:40.579Z,3.77
2022-11-21T05:24:40.566Z,3.86
2022-11-21T05:25:40.559Z,3.78
2022-11-21T05:26:40.536Z,3.80
2022-11-21T05:27:40.553Z,3.83
2022-11-21T05:28:40.509Z,3.74
2022-11-21T05:29:40.515Z,3.73
2022-11-21T05:30:40.491Z,3.81
2022-11-21T05:31:40.529Z,3.70
2022-11-21T05:32:40.513Z,3.80
2022-11-21T05:33:40.491Z,3.80
2022-11-21T05:34:40.474Z,3.68
2022-11-21T05:35:43.371Z,3.83
2022-11-21T05:36:41.472Z,3.81
2022-11-21T05:37:40.480Z,3.80
2022-11-21T05:38:40.429Z,3.81
2022-11-21T05:39:40.451Z,3.68
2022-11-21T05:40:40.442Z,3.69
2022-11-21T05:41:40.535Z,3.69
2022-11-21T05:42:40.423Z,3.60
2022-11-21T05:43:40.444Z,3.69
2022-11-21T05:44:40.446Z,3.63
2022-11-21T05:45:40.442Z,3.63
2022-11-21T05:46:40.367Z,3.65
2022-11-21T05:47:40.476Z,3.70
2022-11-21T05:48:40.434Z,3.69
2022-11-21T05:49:40.348Z,3.70
2022-11-21T05:50:40.335Z,3.70
2022-11-21T05:51:40.343Z,3.60
2022-11-21T05:52:40.343Z,3.59
2022-11-21T05:53:40.463Z,3.70
2022-11-21T05:54:44.925Z,3.73
2022-11-21T05:55:42.303Z,3.58
2022-11-21T05:56:40.345Z,3.53
2022-11-21T05:57:40.307Z,3.58
2022-11-21T05:58:40.306Z,3.50
2022-11-21T05:59:40.316Z,3.42
2022-11-21T06:00:40.275Z,3.48
2022-11-21T06:01:40.304Z,3.48
2022-11-21T06:02:40.319Z,3.44
2022-11-21T06:03:40.243Z,3.41
2022-11-21T06:04:40.282Z,3.42
2022-11-21T06:05:40.266Z,3.21
2022-11-21T06:06:40.234Z,3.34
2022-11-21T06:07:40.289Z,3.34
2022-11-21T06:08:40.214Z,3.26
2022-11-21T06:09:40.195Z,3.34
2022-11-21T06:10:40.180Z,3.16
2022-11-21T06:11:40.182Z,3.25
2022-11-21T06:12:40.201Z,3.19
2022-11-21T06:13:40.170Z,3.18
2022-11-21T06:14:40.155Z,3.25
2022-11-21T06:15:40.146Z,3.36
2022-11-21T06:16:40.188Z,3.37
2022-11-21T06:17:40.166Z,3.44
2022-11-21T06:18:40.118Z,3.41
2022-11-21T06:19:40.139Z,3.45
2022-11-21T06:20:40.156Z,3.44
2022-11-21T06:21:40.114Z,3.47
2022-11-21T06:22:40.164Z,3.40
2022-11-21T06:23:40.088Z,3.31
2022-11-21T06:24:40.110Z,3.34
2022-11-21T06:25:40.069Z,3.26
2022-11-21T06:26:40.102Z,3.31
2022-11-21T06:27:40.075Z,3.23
2022-11-21T06:28:40.107Z,3.25
2022-11-21T06:29:40.051Z,3.32
2022-11-21T06:30:40.036Z,3.32
2022-11-21T06:31:40.027Z,3.29
2022-11-21T06:32:40.129Z,3.37
2022-11-21T06:33:40.036Z,3.36
2022-11-21T06:34:40.003Z,3.22
2022-11-21T06:35:40.010Z,3.29
2022-11-21T06:36:40.012Z,3.21
2022-11-21T06:37:40.057Z,3.32
2022-11-21T06:38:39.976Z,3.26
2022-11-21T06:39:39.999Z,3.19
2022-11-21T06:40:39.955Z,3.16
2022-11-21T06:41:39.948Z,3.16
2022-11-21T06:42:39.942Z,3.16
2022-11-21T06:43:39.956Z,3.25
2022-11-21T06:44:39.949Z,3.19
2022-11-21T06:45:39.912Z,3.08
2022-11-21T06:46:39.903Z,3.07
2022-11-21T06:47:39.924Z,3.08
2022-11-21T06:48:39.888Z,3.03
2022-11-21T06:49:39.895Z,2.98
2022-11-21T06:50:39.888Z,3.10
2022-11-21T06:51:39.891Z,3.04
2022-11-21T06:52:39.861Z,3.03
2022-11-21T06:53:39.889Z,3.01
2022-11-21T06:54:39.905Z,2.98
2022-11-21T06:55:39.832Z,3.13
2022-11-21T06:56:39.850Z,3.03
2022-11-21T06:57:39.841Z,2.98
2022-11-21T06:58:39.829Z,2.95
2022-11-21T06:59:39.806Z,3.03
2022-11-21T07:00:39.814Z,3.00
2022-11-21T07:01:39.853Z,3.08
2022-11-21T07:02:39.849Z,3.18
2022-11-21T07:03:39.821Z,3.00
2022-11-21T07:04:39.815Z,3.00
2022-11-21T07:05:39.758Z,3.05
2022-11-21T07:06:39.782Z,3.10
2022-11-21T07:07:39.789Z,3.08
2022-11-21T07:08:39.804Z,3.07
2022-11-21T07:09:39.747Z,3.10
2022-11-21T07:10:42.531Z,2.98
2022-11-21T07:11:41.631Z,3.13
2022-11-21T07:12:39.712Z,3.18
2022-11-21T07:13:39.704Z,3.18
2022-11-21T07:14:39.779Z,3.19
2022-11-21T07:15:39.715Z,3.14
2022-11-21T07:16:39.719Z,3.14
2022-11-21T07:17:39.661Z,3.18
2022-11-21T07:18:39.660Z,3.21
2022-11-21T07:19:40.971Z,3.26
2022-11-21T07:20:40.641Z,3.23
2022-11-21T07:21:39.662Z,3.23
2022-11-21T07:22:39.637Z,3.25
2022-11-21T07:23:39.650Z,3.26
2022-11-21T07:24:39.666Z,3.36
2022-11-21T07:25:39.604Z,3.28
2022-11-21T07:26:39.682Z,3.32
2022-11-21T07:27:39.607Z,3.25
2022-11-21T07:28:39.634Z,3.37
2022-11-21T07:29:39.585Z,3.37
2022-11-21T07:30:39.561Z,3.23
2022-11-21T07:31:39.584Z,3.37
2022-11-21T07:32:39.556Z,3.31
2022-11-21T07:33:39.565Z,3.32
2022-11-21T07:34:39.556Z,3.31
2022-11-21T07:35:39.560Z,3.31
2022-11-21T07:36:39.555Z,3.26
2022-11-21T07:37:39.536Z,3.19
2022-11-21T07:38:39.504Z,3.22
2022-11-21T07:39:39.566Z,3.25
2022-11-21T07:40:39.498Z,3.26
2022-11-21T07:41:39.509Z,3.21
2022-11-21T07:42:39.486Z,3.28
2022-11-21T07:43:39.586Z,3.29
2022-11-21T07:44:39.476Z,3.29
2022-11-21T07:45:39.448Z,3.28
2022-11-21T07:46:39.450Z,3.40
2022-11-21T07:47:39.437Z,3.41
2022-11-21T07:48:39.445Z,3.51
2022-11-21T07:49:39.425Z,3.31
2022-11-21T07:50:39.417Z,3.40
2022-11-21T07:51:39.410Z,3.55
2022-11-21T07:52:39.416Z,3.47
2022-11-21T07:53:39.507Z,3.47
2022-11-21T07:54:39.409Z,3.65
2022-11-21T07:55:41.016Z,3.69
2022-11-21T07:56:40.360Z,3.59
2022-11-21T07:57:39.365Z,3.65
2022-11-21T07:58:39.399Z,3.60
2022-11-21T07:59:39.329Z,3.56
2022-11-21T08:00:39.361Z,3.45
2022-11-21T08:01:44.981Z,3.44
2022-11-21T08:02:41.316Z,3.44
2022-11-21T08:03:39.323Z,3.50
2022-11-21T08:04:39.330Z,3.40
2022-11-21T08:05:39.376Z,3.45
2022-11-21T08:06:39.293Z,3.53
2022-11-21T08:07:39.329Z,3.63
2022-11-21T08:08:39.284Z,3.48
2022-11-21T08:09:39.950Z,3.44
2022-11-21T08:10:40.335Z,3.55
2022-11-21T08:11:39.275Z,3.47
2022-11-21T08:12:39.240Z,3.45
2022-11-21T08:13:39.224Z,3.58
2022-11-21T08:14:39.365Z,3.55
2022-11-21T08:15:39.226Z,3.59
2022-11-21T08:16:39.238Z,3.63
2022-11-21T08:17:39.210Z,3.62
2022-11-21T08:18:39.193Z,3.69
2022-11-21T08:19:39.215Z,3.66
2022-11-21T08:20:39.233Z,3.73
2022-11-21T08:21:39.167Z,3.69
2022-11-21T08:22:39.168Z,3.74
2022-11-21T08:23:39.175Z,3.81
2022-11-21T08:24:39.150Z,3.74
2022-11-21T08:25:39.177Z,3.68
2022-11-21T08:26:49.351Z,3.77
2022-11-21T08:27:39.236Z,3.76
2022-11-21T08:28:39.287Z,3.87
2022-11-21T08:29:39.261Z,3.91
2022-11-21T08:30:39.176Z,3.88
2022-11-21T08:31:40.185Z,3.81
2022-11-21T08:32:39.254Z,3.86
2022-11-21T08:33:39.483Z,3.86
2022-11-21T08:34:39.125Z,3.91
2022-11-21T08:35:39.317Z,3.84
2022-11-21T08:36:39.251Z,3.92
2022-11-21T08:37:39.153Z,3.88
2022-11-21T08:38:39.142Z,4.05
2022-11-21T08:39:39.322Z,3.95
2022-11-21T08:40:39.216Z,4.02
2022-11-21T08:41:39.181Z,3.91
2022-11-21T08:42:39.350Z,3.99
2022-11-21T08:43:39.577Z,3.95
2022-11-21T08:44:39.123Z,3.96
2022-11-21T08:45:39.115Z,3.96
2022-11-21T08:46:39.057Z,4.04
2022-11-21T08:48:12.083Z,3.96
2022-11-21T08:48:39.938Z,3.95
2022-11-21T08:49:39.244Z,3.94
2022-11-21T08:50:39.029Z,3.98
2022-11-21T08:51:39.020Z,3.95
2022-11-21T08:52:40.658Z,3.96
2022-11-21T08:53:39.006Z,3.86
2022-11-21T08:54:38.975Z,3.92
2022-11-21T08:55:38.925Z,3.98
2022-11-21T08:56:38.973Z,3.92
2022-11-21T08:57:39.181Z,3.94
2022-11-21T08:58:39.024Z,3.92
2022-11-21T08:59:39.042Z,3.91
2022-11-21T09:00:38.922Z,3.91
2022-11-21T09:01:38.902Z,3.86
2022-11-21T09:02:39.212Z,4.01
2022-11-21T09:03:38.891Z,3.91
2022-11-21T09:04:39.511Z,3.94
2022-11-21T09:05:38.927Z,3.96
2022-11-21T09:06:38.928Z,4.04
2022-11-21T09:07:39.097Z,3.96
2022-11-21T09:08:38.949Z,3.92
2022-11-21T09:09:38.899Z,3.91
2022-11-21T09:10:38.838Z,3.83
2022-11-21T09:11:38.865Z,3.87
2022-11-21T09:12:39.045Z,3.87
2022-11-21T09:13:38.806Z,3.91
2022-11-21T09:14:38.856Z,3.91
2022-11-21T09:15:38.854Z,3.69
2022-11-21T09:16:38.787Z,3.73
2022-11-21T09:17:38.780Z,3.76
2022-11-21T09:18:38.740Z,3.83
2022-11-21T09:19:38.746Z,3.86
2022-11-21T09:20:38.792Z,3.91
2022-11-21T09:21:38.754Z,3.91
2022-11-21T09:22:38.796Z,3.88
2022-11-21T09:23:38.708Z,3.96
2022-11-21T09:24:38.715Z,3.91
2022-11-21T09:25:38.721Z,3.98
2022-11-21T09:26:38.772Z,3.95
2022-11-21T09:27:38.725Z,4.01
2022-11-21T09:28:38.700Z,3.98
2022-11-21T09:29:38.713Z,3.96
2022-11-21T09:30:38.772Z,4.10
2022-11-21T09:31:38.738Z,3.99
2022-11-21T09:32:38.691Z,4.16
2022-11-21T09:33:38.757Z,4.14
2022-11-21T09:34:38.638Z,4.14
2022-11-21T09:35:38.709Z,4.23
2022-11-21T09:36:38.696Z,4.28
2022-11-21T09:37:38.696Z,4.38
2022-11-21T09:38:38.669Z,4.50
2022-11-21T09:39:38.657Z,4.53
2022-11-21T09:40:38.680Z,4.52
2022-11-21T09:41:38.621Z,4.52
2022-11-21T09:42:38.599Z,4.49
2022-11-21T09:43:38.630Z,4.71
2022-11-21T09:44:38.568Z,4.62
2022-11-21T09:45:38.597Z,4.70
2022-11-21T09:46:38.734Z,4.78
2022-11-21T09:47:38.540Z,4.86
2022-11-21T09:48:38.531Z,4.87
2022-11-21T09:49:38.622Z,4.78
2022-11-21T09:50:38.526Z,4.87
2022-11-21T09:51:38.561Z,4.87
2022-11-21T09:52:38.556Z,4.97
2022-11-21T09:53:38.727Z,5.15
2022-11-21T09:54:38.488Z,5.25
2022-11-21T09:55:38.521Z,5.26
2022-11-21T09:56:38.471Z,5.32
2022-11-21T09:57:38.601Z,5.46
2022-11-21T09:58:38.529Z,5.51
2022-11-21T09:59:38.500Z,5.47
2022-11-21T10:00:38.478Z,5.46
2022-11-21T10:01:38.424Z,5.25
2022-11-21T10:02:38.452Z,5.18
2022-11-21T10:03:38.587Z,5.15
2022-11-21T10:04:38.393Z,5.11
2022-11-21T10:05:38.395Z,5.17
2022-11-21T10:06:38.363Z,5.15
2022-11-21T10:07:38.415Z,5.18
2022-11-21T10:09:10.894Z,5.17
2022-11-21T10:09:38.394Z,5.11
2022-11-21T10:10:38.493Z,5.11
2022-11-21T10:11:38.481Z,5.17
2022-11-21T10:12:38.322Z,5.02
2022-11-21T10:13:38.409Z,5.02
2022-11-21T10:14:38.301Z,5.04
2022-11-21T10:15:38.348Z,5.12
2022-11-21T10:16:41.994Z,5.02
2022-11-21T10:17:39.579Z,5.02
2022-11-21T10:18:38.305Z,5.04
2022-11-21T10:19:38.327Z,5.07
2022-11-21T10:20:38.663Z,5.08
2022-11-21T10:21:38.402Z,5.07
2022-11-21T10:22:38.258Z,5.05
2022-11-21T10:23:38.228Z,5.20
2022-11-21T10:24:38.307Z,5.12
2022-11-21T10:25:38.293Z,5.00
2022-11-21T10:26:38.263Z,5.04
2022-11-21T10:27:38.273Z,4.99
2022-11-21T10:28:38.225Z,5.05
2022-11-21T10:29:38.229Z,4.94
2022-11-21T10:30:38.233Z,5.05
2022-11-21T10:31:38.188Z,5.05
2022-11-21T10:32:38.159Z,4.99
2022-11-21T10:33:38.220Z,4.82
2022-11-21T10:34:38.206Z,4.97
2022-11-21T10:35:38.151Z,4.80
2022-11-21T10:36:38.179Z,4.74
2022-11-21T10:37:38.172Z,4.89
2022-11-21T10:38:38.157Z,5.02
2022-11-21T10:39:38.097Z,5.02
2022-11-21T10:40:38.113Z,5.11
2022-11-21T10:41:38.119Z,5.44
2022-11-21T10:42:38.095Z,5.57
2022-11-21T10:43:38.079Z,5.59
2022-11-21T10:44:38.147Z,5.44
2022-11-21T10:45:38.069Z,5.25
2022-11-21T10:46:38.075Z,5.29
2022-11-21T10:47:38.042Z,5.38
2022-11-21T10:48:38.045Z,5.43
2022-11-21T10:49:38.033Z,5.28
2022-11-21T10:50:38.096Z,5.28
2022-11-21T10:51:38.128Z,5.21
2022-11-21T10:52:38.026Z,5.18
2022-11-21T10:53:38.023Z,5.10
2022-11-21T10:54:37.994Z,5.10
2022-11-21T10:55:38.087Z,4.97
2022-11-21T10:56:38.061Z,4.93
2022-11-21T10:57:37.966Z,4.75
2022-11-21T10:58:38.017Z,4.84
2022-11-21T10:59:38.025Z,4.77
2022-11-21T11:00:37.998Z,5.02
2022-11-21T11:01:37.994Z,5.05
2022-11-21T11:02:37.931Z,5.28
2022-11-21T11:03:37.986Z,5.72
2022-11-21T11:04:47.509Z,6.08
2022-11-21T11:05:39.946Z,6.36
2022-11-21T11:06:37.929Z,6.54
2022-11-21T11:07:38.086Z,6.62
2022-11-21T11:08:37.945Z,6.69
2022-11-21T11:09:37.902Z,6.60
2022-11-21T11:10:37.914Z,6.60
2022-11-21T11:11:37.890Z,6.70
2022-11-21T11:12:37.863Z,6.57
2022-11-21T11:13:45.956Z,6.52
2022-11-21T11:14:39.892Z,6.39
2022-11-21T11:15:37.817Z,6.24
2022-11-21T11:16:41.582Z,6.27
2022-11-21T11:17:38.869Z,6.16
2022-11-21T11:18:37.908Z,6.17
2022-11-21T11:19:40.375Z,6.05
2022-11-21T11:20:38.800Z,5.90
2022-11-21T11:21:37.911Z,5.99
2022-11-21T11:22:37.887Z,5.86
2022-11-21T11:23:37.810Z,5.82
2022-11-21T11:24:37.791Z,5.66
2022-11-21T11:25:37.808Z,5.69
2022-11-21T11:26:37.751Z,5.59
2022-11-21T11:27:37.898Z,5.43
2022-11-21T11:28:37.852Z,5.48
2022-11-21T11:29:37.896Z,5.47
2022-11-21T11:30:37.700Z,5.41
2022-11-21T11:31:37.748Z,5.50
2022-11-21T11:32:37.710Z,5.51
2022-11-21T11:33:37.698Z,5.57
2022-11-21T11:34:37.773Z,5.53
2022-11-21T11:35:37.731Z,5.51
2022-11-21T11:36:37.691Z,5.54
2022-11-21T11:37:40.709Z,5.57
2022-11-21T11:38:38.648Z,5.66
2022-11-21T11:39:37.676Z,5.61
2022-11-21T11:40:37.659Z,5.56
2022-11-21T11:41:37.629Z,5.59
2022-11-21T11:42:37.655Z,5.56
2022-11-21T11:43:37.697Z,5.59
2022-11-21T11:44:37.619Z,5.62
2022-11-21T11:45:37.622Z,5.64
2022-11-21T11:46:37.608Z,5.54
2022-11-21T11:47:37.596Z,5.56
2022-11-21T11:48:50.462Z,5.65
2022-11-21T11:49:39.576Z,5.64
2022-11-21T11:50:37.565Z,5.68
2022-11-21T11:51:37.642Z,5.64
2022-11-21T11:52:37.546Z,5.80
2022-11-21T11:53:37.620Z,5.73
2022-11-21T11:54:37.531Z,5.83
2022-11-21T11:55:37.535Z,5.93
2022-11-21T11:56:37.530Z,5.93
2022-11-21T11:57:37.508Z,5.97
2022-11-21T11:58:37.575Z,5.86
2022-11-21T11:59:37.544Z,6.04
2022-11-21T12:00:37.479Z,6.17
2022-11-21T12:01:37.504Z,6.30
2022-11-21T12:02:37.591Z,6.24
2022-11-21T12:03:38.365Z,6.19
2022-11-21T12:04:37.491Z,6.19
2022-11-21T12:05:37.451Z,6.36
2022-11-21T12:07:26.145Z,6.24
2022-11-21T12:08:39.092Z,6.20
2022-11-21T12:08:41.762Z,6.09
2022-11-21T12:09:38.503Z,6.17
2022-11-21T12:10:37.402Z,6.04
2022-11-21T12:11:37.413Z,5.98
2022-11-21T12:12:37.395Z,6.05
2022-11-21T12:13:37.402Z,6.02
2022-11-21T12:14:37.421Z,6.07
2022-11-21T12:15:37.448Z,6.01
2022-11-21T12:16:37.383Z,6.09
2022-11-21T12:17:37.389Z,6.17
2022-11-21T12:18:37.383Z,6.22
2022-11-21T12:19:37.367Z,6.20
2022-11-21T12:20:37.337Z,6.19
2022-11-21T12:21:38.332Z,6.30
2022-11-21T12:22:37.437Z,6.28
2022-11-21T12:23:37.309Z,6.36
2022-11-21T12:24:42.769Z,6.36
2022-11-21T12:25:40.822Z,6.16
2022-11-21T12:26:37.398Z,6.36
2022-11-21T12:27:37.297Z,6.26
2022-11-21T12:28:37.308Z,6.31
2022-11-21T12:29:37.299Z,6.31
2022-11-21T12:30:37.251Z,6.44
2022-11-21T12:31:37.309Z,6.48
2022-11-21T12:32:37.274Z,6.39
2022-11-21T12:33:37.227Z,6.41
2022-11-21T12:34:37.260Z,6.08
2022-11-21T12:35:37.282Z,5.98
2022-11-21T12:36:37.246Z,5.98
2022-11-21T12:37:37.761Z,6.02
2022-11-21T12:38:41.943Z,6.01
2022-11-21T12:39:39.218Z,6.05
2022-11-21T12:40:37.179Z,6.16
2022-11-21T12:41:37.293Z,6.09
2022-11-21T12:42:37.191Z,6.17
2022-11-21T12:43:37.876Z,6.05
2022-11-21T12:44:37.161Z,6.08
2022-11-21T12:45:37.198Z,6.27
2022-11-21T12:46:37.122Z,6.22
2022-11-21T12:47:37.128Z,6.14
2022-11-21T12:48:37.239Z,6.22
2022-11-21T12:49:37.189Z,6.27
2022-11-21T12:50:37.089Z,6.19
2022-11-21T12:51:37.144Z,6.26
2022-11-21T12:52:37.138Z,6.31
2022-11-21T12:53:37.153Z,6.35
2022-11-21T12:54:37.085Z,6.41
2022-11-21T12:55:37.093Z,6.44
2022-11-21T12:56:38.106Z,6.41
2022-11-21T12:57:37.041Z,6.56
2022-11-21T12:58:37.088Z,6.52
2022-11-21T12:59:37.099Z,6.72
2022-11-21T13:00:37.022Z,6.78
2022-11-21T13:01:37.026Z,6.87
2022-11-21T13:02:36.988Z,7.13
2022-11-21T13:03:36.962Z,7.17
2022-11-21T13:04:37.023Z,7.33
2022-11-21T13:05:37.006Z,7.23
2022-11-21T13:06:37.042Z,7.24
2022-11-21T13:07:37.047Z,7.28
2022-11-21T13:08:37.016Z,7.28
2022-11-21T13:09:36.964Z,7.32
2022-11-21T13:10:37.062Z,7.36
2022-11-21T13:11:36.944Z,7.31
2022-11-21T13:12:36.919Z,7.29
2022-11-21T13:13:36.933Z,7.05
2022-11-21T13:14:36.916Z,7.15
2022-11-21T13:15:38.646Z,7.03
2022-11-21T13:16:37.898Z,7.07
2022-11-21T13:17:36.908Z,7.03
2022-11-21T13:18:36.904Z,6.96
2022-11-21T13:19:38.024Z,6.88
2022-11-21T13:20:36.877Z,6.87
2022-11-21T13:21:40.720Z,6.89
2022-11-21T13:22:38.783Z,6.84
2022-11-21T13:23:36.895Z,6.74
2022-11-21T13:24:36.843Z,6.70
2022-11-21T13:25:36.923Z,6.60
2022-11-21T13:26:36.820Z,6.60
2022-11-21T13:27:39.082Z,6.52
2022-11-21T13:28:37.827Z,6.45
2022-11-21T13:29:36.886Z,6.35
2022-11-21T13:30:36.847Z,6.36
2022-11-21T13:31:36.786Z,6.33
2022-11-21T13:32:36.848Z,6.33
2022-11-21T13:33:36.829Z,6.24
2022-11-21T13:34:37.792Z,6.35
2022-11-21T13:35:36.870Z,6.49
2022-11-21T13:36:36.769Z,6.46
2022-11-21T13:37:36.809Z,6.56
2022-11-21T13:38:36.723Z,6.49
2022-11-21T13:39:36.935Z,6.54
2022-11-21T13:40:36.724Z,6.45
2022-11-21T13:41:36.756Z,6.51
2022-11-21T13:44:34.876Z,6.44
2022-11-21T13:45:34.794Z,6.35
2022-11-21T13:46:34.774Z,6.33
2022-11-21T13:47:35.537Z,6.33
2022-11-21T13:48:35.912Z,6.33
2022-11-21T13:49:35.965Z,6.36
2022-11-21T13:50:35.997Z,6.39
2022-11-21T13:51:35.922Z,6.42
2022-11-21T13:52:36.012Z,6.46
2022-11-21T13:53:35.941Z,6.46
2022-11-21T13:54:35.993Z,6.48
2022-11-21T13:55:35.982Z,6.42
2022-11-21T13:56:35.938Z,6.57
2022-11-21T13:57:35.966Z,6.56
2022-11-21T13:58:35.931Z,6.59
2022-11-21T13:59:35.968Z,6.63
2022-11-21T14:00:35.899Z,6.56